createdAt,value
2023-04-21T00:03:42.912Z,32.50
2023-04-21T00:08:44.919Z,37.30
2023-04-21T00:13:46.648Z,47.70
2023-04-21T00:18:48.500Z,56.20
2023-04-21T00:23:50.640Z,70.30
2023-04-21T00:28:52.350Z,53.90
2023-04-21T00:33:54.112Z,47.70
2023-04-21T00:38:57.405Z,41.50
2023-04-21T00:44:07.554Z,38.20
2023-04-21T00:49:09.537Z,40.30
2023-04-21T00:54:12.196Z,39.10
2023-04-21T00:59:13.926Z,44.00
2023-04-21T01:04:16.282Z,58.30
2023-04-21T01:09:18.918Z,55.90
2023-04-21T01:14:20.913Z,43.40
2023-04-21T01:19:23.116Z,45.80
2023-04-21T01:24:25.378Z,51.10
2023-04-21T01:29:27.057Z,50.70
2023-04-21T01:34:29.159Z,41.10
2023-04-21T01:39:31.058Z,52.40
2023-04-21T01:44:32.852Z,46.30
2023-04-21T01:49:34.532Z,43.20
2023-04-21T01:54:36.572Z,39.20
2023-04-21T01:59:39.512Z,44.50
2023-04-21T02:04:41.436Z,58.00
2023-04-21T02:09:43.364Z,50.30
2023-04-21T02:14:47.468Z,50.40
2023-04-21T02:19:49.236Z,56.40
2023-04-21T02:24:50.913Z,46.30
2023-04-21T02:29:54.446Z,50.40
2023-04-21T02:34:56.433Z,45.10
2023-04-21T02:39:59.280Z,44.00
2023-04-21T02:45:01.124Z,54.50
2023-04-21T02:50:03.431Z,48.60
2023-04-21T02:55:07.522Z,59.10
2023-04-21T03:00:12.547Z,46.70
2023-04-21T03:05:14.413Z,54.40
2023-04-21T03:10:19.597Z,47.40
2023-04-21T03:15:22.776Z,46.90
2023-04-21T03:20:24.498Z,49.40
2023-04-21T03:25:27.883Z,54.50
2023-04-21T03:30:29.718Z,48.20
2023-04-21T03:35:31.658Z,52.30
2023-04-21T03:40:33.604Z,48.50
2023-04-21T03:45:38.315Z,49.90
2023-04-21T03:50:40.199Z,48.80
2023-04-21T03:55:41.887Z,51.10
2023-04-21T04:07:12.525Z,62.80
2023-04-21T04:12:14.214Z,52.60
2023-04-21T04:17:15.884Z,51.80
2023-04-21T04:22:17.614Z,42.80
2023-04-21T04:27:20.517Z,46.00
2023-04-21T04:32:22.243Z,47.80
2023-04-21T04:37:25.359Z,41.20
2023-04-21T04:42:27.210Z,45.80
2023-04-21T04:47:29.655Z,50.50
2023-04-21T04:52:31.715Z,48.60
2023-04-21T04:57:33.490Z,46.90
2023-04-21T05:02:35.771Z,48.60
2023-04-21T05:07:37.727Z,71.10
2023-04-21T05:12:39.514Z,84.30
2023-04-21T05:17:41.232Z,59.20
2023-04-21T05:22:42.946Z,59.90
2023-04-21T05:27:48.375Z,59.90
2023-04-21T05:32:50.796Z,39.70
2023-04-21T05:37:52.491Z,34.80
2023-04-21T05:42:54.245Z,33.50
2023-04-21T05:47:56.130Z,37.90
2023-04-21T05:52:57.810Z,38.30
2023-04-21T05:57:59.785Z,30.60
2023-04-21T06:03:01.871Z,29.00
2023-04-21T06:08:03.866Z,31.10
2023-04-21T06:13:05.568Z,29.20
2023-04-21T06:18:07.450Z,28.70
2023-04-21T06:23:09.780Z,30.90
2023-04-21T06:28:11.650Z,27.40
2023-04-21T06:33:13.391Z,35.60
2023-04-21T06:38:15.335Z,26.50
2023-04-21T06:43:17.112Z,35.30
2023-04-21T06:48:18.820Z,30.30
2023-04-21T06:53:21.739Z,28.70
2023-04-21T06:58:23.719Z,34.80
2023-04-21T07:03:25.634Z,28.60
2023-04-21T07:08:27.401Z,27.20
2023-04-21T07:13:29.129Z,29.60
2023-04-21T07:18:30.952Z,29.50
2023-04-21T07:23:32.667Z,23.50
2023-04-21T07:28:34.414Z,19.70
2023-04-21T07:33:36.238Z,19.70
2023-04-21T07:38:38.434Z,21.30
2023-04-21T07:43:40.816Z,26.40
2023-04-21T07:48:42.631Z,24.80
2023-04-21T07:53:44.350Z,27.30
2023-04-21T07:58:46.521Z,25.80
2023-04-21T08:03:48.773Z,27.50
2023-04-21T08:08:51.015Z,26.60
2023-04-21T08:13:52.915Z,32.10
2023-04-21T08:18:54.663Z,29.20
2023-04-21T08:23:56.483Z,28.20
2023-04-21T08:28:58.237Z,26.20
2023-04-21T08:34:02.982Z,26.30
2023-04-21T08:39:04.989Z,28.90
2023-04-21T08:44:06.997Z,22.00
2023-04-21T08:49:10.602Z,22.90
2023-04-21T08:54:12.533Z,17.10
2023-04-21T08:59:14.214Z,16.10
2023-04-21T09:04:18.071Z,17.80
2023-04-21T09:09:20.152Z,19.70
2023-04-21T09:14:22.076Z,11.50
2023-04-21T09:19:23.782Z,10.10
2023-04-21T09:24:25.526Z,8.00
2023-04-21T09:29:27.916Z,11.40
2023-04-21T09:34:30.301Z,8.20
2023-04-21T09:39:43.207Z,10.10
2023-04-21T09:44:58.127Z,6.70
2023-04-21T09:50:13.266Z,8.80
2023-04-21T09:55:16.465Z,5.90
2023-04-21T10:00:22.063Z,6.80
2023-04-21T10:05:24.273Z,7.90
2023-04-21T10:10:28.394Z,10.90
2023-04-21T10:15:38.247Z,13.50
2023-04-21T10:21:01.832Z,7.40
2023-04-21T10:26:07.097Z,9.00
2023-04-21T10:31:29.552Z,9.00
2023-04-21T10:36:32.969Z,8.20
2023-04-21T10:41:36.052Z,6.40
2023-04-21T10:46:45.339Z,7.10
2023-04-21T10:52:05.702Z,6.70
2023-04-21T11:02:20.282Z,10.60
2023-04-21T11:07:23.820Z,5.60
2023-04-21T11:12:38.870Z,9.10
2023-04-21T11:17:43.369Z,7.20
2023-04-21T11:22:46.546Z,5.80
2023-04-21T11:28:00.272Z,6.40
2023-04-21T11:33:02.446Z,5.80
2023-04-21T11:38:07.057Z,5.30
2023-04-21T11:43:09.447Z,7.20
2023-04-21T11:48:18.103Z,6.20
2023-04-21T11:53:19.948Z,5.70
2023-04-21T11:58:22.160Z,6.70
2023-04-21T12:03:26.434Z,6.70
2023-04-21T12:08:31.913Z,6.50
2023-04-21T12:13:33.715Z,6.70
2023-04-21T12:18:36.806Z,5.80
2023-04-21T12:23:39.257Z,5.20
2023-04-21T12:28:41.004Z,5.50
2023-04-21T12:33:42.769Z,5.40
2023-04-21T12:38:44.836Z,5.60
2023-04-21T12:43:46.971Z,5.60
2023-04-21T12:48:48.936Z,8.20
2023-04-21T12:53:51.561Z,5.20
2023-04-21T12:58:53.543Z,6.10
2023-04-21T13:03:55.800Z,4.70
2023-04-21T13:08:57.643Z,4.60
2023-04-21T13:13:59.292Z,5.30
2023-04-21T13:19:01.121Z,5.00
2023-04-21T13:24:02.875Z,5.00
2023-04-21T13:29:04.607Z,4.40
2023-04-21T13:34:06.555Z,5.30
2023-04-21T13:39:11.446Z,4.30
2023-04-21T13:44:13.243Z,5.00
2023-04-21T13:49:15.346Z,5.40
2023-04-21T13:54:17.118Z,6.90
2023-04-21T13:59:21.148Z,4.70
2023-04-21T14:04:23.076Z,6.20
2023-04-21T14:09:25.359Z,6.80
2023-04-21T14:14:37.849Z,4.70
2023-04-21T14:19:40.213Z,5.10
2023-04-21T14:24:41.985Z,5.90
2023-04-21T14:29:43.719Z,7.10
2023-04-21T14:34:45.531Z,6.30
2023-04-21T14:39:47.228Z,6.30
2023-04-21T14:44:48.960Z,4.60
2023-04-21T14:49:55.113Z,4.60
2023-04-21T14:54:57.664Z,4.90
2023-04-21T14:59:59.411Z,4.40
2023-04-21T15:05:02.252Z,4.40
2023-04-21T15:10:04.621Z,5.30
2023-04-21T15:15:06.888Z,4.90
2023-04-21T15:20:10.594Z,4.50
2023-04-21T15:25:12.318Z,5.50
2023-04-21T15:30:14.699Z,4.70
2023-04-21T15:35:16.491Z,4.40
2023-04-21T15:40:18.318Z,4.20
2023-04-21T15:45:20.063Z,8.50
2023-04-21T15:50:22.225Z,7.40
2023-04-21T15:55:24.666Z,5.40
2023-04-21T16:00:26.821Z,5.50
2023-04-21T16:05:29.321Z,4.70
2023-04-21T16:10:31.257Z,5.70
2023-04-21T16:15:33.021Z,4.90
2023-04-21T16:20:36.867Z,6.10
2023-04-21T16:25:39.010Z,4.10
2023-04-21T16:30:43.522Z,4.30
2023-04-21T16:35:46.013Z,5.30
2023-04-21T16:40:47.937Z,6.70
2023-04-21T16:45:49.696Z,5.00
2023-04-21T16:50:53.883Z,5.90
2023-04-21T16:55:55.836Z,5.40
2023-04-21T17:00:57.600Z,5.20
2023-04-21T17:05:59.434Z,7.40
2023-04-21T17:11:01.137Z,6.00
2023-04-21T17:16:03.018Z,4.10
2023-04-21T17:21:06.202Z,4.90
2023-04-21T17:26:10.086Z,5.80
2023-04-21T17:31:16.138Z,4.70
2023-04-21T17:36:19.244Z,8.70
2023-04-21T17:41:21.611Z,8.60
2023-04-21T17:46:25.370Z,6.10
2023-04-21T17:51:28.760Z,9.10
2023-04-21T17:56:31.184Z,9.10
2023-04-21T18:01:32.959Z,9.20
2023-04-21T18:06:35.544Z,8.40
2023-04-21T18:11:38.415Z,10.60
2023-04-21T18:16:40.312Z,14.20
2023-04-21T18:21:42.245Z,12.10
2023-04-21T18:26:44.063Z,12.50
2023-04-21T18:31:46.022Z,13.60
2023-04-21T18:36:49.368Z,14.30
2023-04-21T18:41:52.028Z,13.20
2023-04-21T18:46:56.525Z,21.10
2023-04-21T18:51:58.411Z,20.60
2023-04-21T18:57:00.889Z,17.70
2023-04-21T19:02:04.040Z,20.60
2023-04-21T19:07:08.388Z,26.50
2023-04-21T19:12:10.278Z,21.80
2023-04-21T19:17:12.139Z,25.30
2023-04-21T19:22:13.947Z,27.80
2023-04-21T19:27:15.599Z,29.90
2023-04-21T19:32:17.355Z,46.70
2023-04-21T19:37:19.125Z,41.70
2023-04-21T19:42:20.793Z,44.50
2023-04-21T19:47:22.475Z,36.90
2023-04-21T19:52:24.250Z,32.50
2023-04-21T19:57:26.105Z,25.20
2023-04-21T20:02:28.556Z,28.10
2023-04-21T20:07:30.628Z,29.70
2023-04-21T20:12:32.905Z,31.70
2023-04-21T20:17:35.889Z,36.60
2023-04-21T20:22:37.715Z,33.30
2023-04-21T20:27:39.575Z,37.40
2023-04-21T20:32:41.224Z,34.50
2023-04-21T20:37:44.426Z,34.00
2023-04-21T20:42:46.131Z,32.80
2023-04-21T20:47:47.861Z,29.90
2023-04-21T20:52:52.639Z,34.70
2023-04-21T20:57:54.285Z,47.80
2023-04-21T21:02:56.135Z,42.10
2023-04-21T21:07:58.979Z,38.30
2023-04-21T21:13:01.438Z,34.10
2023-04-21T21:18:03.929Z,37.50
2023-04-21T21:23:06.332Z,33.00
2023-04-21T21:28:08.113Z,33.50
2023-04-21T21:33:10.068Z,33.10
2023-04-21T21:38:11.942Z,29.70
2023-04-21T21:43:16.164Z,34.70
2023-04-21T21:48:18.094Z,45.80
2023-04-21T21:53:21.317Z,34.90
2023-04-21T21:58:23.147Z,40.80
2023-04-21T22:03:25.079Z,30.80
2023-04-21T22:08:26.978Z,42.50
2023-04-21T22:13:28.724Z,40.50
2023-04-21T22:18:30.873Z,49.90
2023-04-21T22:23:32.671Z,47.40
2023-04-21T22:28:34.898Z,43.00
2023-04-21T22:33:37.289Z,45.70
2023-04-21T22:38:39.011Z,51.10
2023-04-21T22:43:40.810Z,63.40
2023-04-21T22:48:45.958Z,71.80
2023-04-21T22:53:47.848Z,66.50
2023-04-21T22:58:50.378Z,59.20
2023-04-21T23:03:52.297Z,62.60
2023-04-21T23:08:56.281Z,62.60
2023-04-21T23:14:09.809Z,69.20
2023-04-21T23:19:12.468Z,77.50
2023-04-21T23:24:14.483Z,84.50
2023-04-21T23:29:16.246Z,57.60
2023-04-21T23:34:17.961Z,60.30
2023-04-21T23:39:21.643Z,60.00
2023-04-21T23:44:24.570Z,55.80
2023-04-21T23:49:28.021Z,53.80
2023-04-21T23:54:29.774Z,55.70
2023-04-21T23:59:31.444Z,52.90
